sensor_id;sensor_type;location;lat;lon;timestamp;P1;durP1;ratioP1;P2;durP2;ratioP2
173;SDS011;75;48.784;9.364;2022-12-05T00:00:53;35.90;;;18.83;;
173;SDS011;75;48.784;9.364;2022-12-05T00:03:21;38.00;;;19.20;;
173;SDS011;75;48.784;9.364;2022-12-05T00:05:48;38.70;;;19.53;;
173;SDS011;75;48.784;9.364;2022-12-05T00:08:15;37.10;;;19.83;;
173;SDS011;75;48.784;9.364;2022-12-05T00:10:43;36.80;;;19.93;;
173;SDS011;75;48.784;9.364;2022-12-05T00:13:10;40.60;;;20.50;;
173;SDS011;75;48.784;9.364;2022-12-05T00:15:38;39.30;;;19.90;;
173;SDS011;75;48.784;9.364;2022-12-05T00:18:05;34.30;;;18.63;;
173;SDS011;75;48.784;9.364;2022-12-05T00:20:33;35.47;;;18.67;;
173;SDS011;75;48.784;9.364;2022-12-05T00:23:00;33.13;;;17.90;;
173;SDS011;75;48.784;9.364;2022-12-05T00:25:28;36.23;;;17.63;;
173;SDS011;75;48.784;9.364;2022-12-05T00:27:55;34.07;;;17.60;;
173;SDS011;75;48.784;9.364;2022-12-05T00:30:22;33.60;;;17.50;;
173;SDS011;75;48.784;9.364;2022-12-05T00:32:50;33.90;;;18.17;;
173;SDS011;75;48.784;9.364;2022-12-05T00:35:17;33.33;;;17.43;;
173;SDS011;75;48.784;9.364;2022-12-05T00:37:45;32.80;;;17.67;;
173;SDS011;75;48.784;9.364;2022-12-05T00:40:12;31.93;;;18.30;;
173;SDS011;75;48.784;9.364;2022-12-05T00:42:39;30.50;;;17.67;;
173;SDS011;75;48.784;9.364;2022-12-05T00:45:07;31.87;;;17.67;;
173;SDS011;75;48.784;9.364;2022-12-05T00:47:35;37.73;;;19.07;;
173;SDS011;75;48.784;9.364;2022-12-05T00:50:05;32.70;;;18.77;;
173;SDS011;75;48.784;9.364;2022-12-05T00:52:32;32.43;;;17.80;;
173;SDS011;75;48.784;9.364;2022-12-05T00:55:00;35.80;;;18.27;;
173;SDS011;75;48.784;9.364;2022-12-05T00:57:27;35.07;;;19.47;;
173;SDS011;75;48.784;9.364;2022-12-05T00:59:54;35.00;;;19.30;;
173;SDS011;75;48.784;9.364;2022-12-05T01:02:22;34.87;;;19.33;;
173;SDS011;75;48.784;9.364;2022-12-05T01:04:49;31.87;;;18.40;;
173;SDS011;75;48.784;9.364;2022-12-05T01:07:16;33.30;;;17.80;;
173;SDS011;75;48.784;9.364;2022-12-05T01:09:44;33.00;;;17.33;;
173;SDS011;75;48.784;9.364;2022-12-05T01:12:11;32.60;;;18.23;;
173;SDS011;75;48.784;9.364;2022-12-05T01:14:38;33.73;;;18.17;;
173;SDS011;75;48.784;9.364;2022-12-05T01:17:06;33.27;;;19.03;;
173;SDS011;75;48.784;9.364;2022-12-05T01:19:33;33.03;;;17.60;;
173;SDS011;75;48.784;9.364;2022-12-05T01:22:00;33.70;;;18.67;;
173;SDS011;75;48.784;9.364;2022-12-05T01:24:28;33.50;;;18.10;;
173;SDS011;75;48.784;9.364;2022-12-05T01:26:56;33.83;;;17.70;;
173;SDS011;75;48.784;9.364;2022-12-05T01:29:23;33.27;;;17.47;;
173;SDS011;75;48.784;9.364;2022-12-05T01:31:51;33.43;;;18.67;;
173;SDS011;75;48.784;9.364;2022-12-05T01:34:19;30.50;;;16.77;;
173;SDS011;75;48.784;9.364;2022-12-05T01:36:47;30.47;;;17.30;;
173;SDS011;75;48.784;9.364;2022-12-05T01:39:14;32.20;;;17.73;;
173;SDS011;75;48.784;9.364;2022-12-05T01:41:43;32.53;;;17.50;;
173;SDS011;75;48.784;9.364;2022-12-05T01:46:42;33.00;;;17.73;;
173;SDS011;75;48.784;9.364;2022-12-05T01:49:11;31.53;;;18.03;;
173;SDS011;75;48.784;9.364;2022-12-05T01:51:41;32.97;;;18.73;;
173;SDS011;75;48.784;9.364;2022-12-05T01:54:09;35.80;;;19.03;;
173;SDS011;75;48.784;9.364;2022-12-05T01:56:38;38.80;;;19.93;;
173;SDS011;75;48.784;9.364;2022-12-05T01:59:07;31.60;;;17.03;;
173;SDS011;75;48.784;9.364;2022-12-05T02:01:36;34.63;;;19.07;;
173;SDS011;75;48.784;9.364;2022-12-05T02:04:03;29.47;;;17.13;;
173;SDS011;75;48.784;9.364;2022-12-05T02:06:31;29.17;;;16.20;;
173;SDS011;75;48.784;9.364;2022-12-05T02:08:59;34.30;;;18.70;;
173;SDS011;75;48.784;9.364;2022-12-05T02:11:27;31.57;;;17.03;;
173;SDS011;75;48.784;9.364;2022-12-05T02:14:02;31.40;;;16.30;;
173;SDS011;75;48.784;9.364;2022-12-05T02:29:29;30.60;;;16.30;;
173;SDS011;75;48.784;9.364;2022-12-05T02:32:03;31.17;;;16.10;;
173;SDS011;75;48.784;9.364;2022-12-05T02:39:53;34.93;;;16.90;;
173;SDS011;75;48.784;9.364;2022-12-05T02:44:51;31.97;;;17.20;;
173;SDS011;75;48.784;9.364;2022-12-05T02:47:21;37.13;;;18.10;;
173;SDS011;75;48.784;9.364;2022-12-05T02:49:50;34.30;;;17.70;;
173;SDS011;75;48.784;9.364;2022-12-05T02:52:18;35.67;;;17.80;;
173;SDS011;75;48.784;9.364;2022-12-05T02:54:47;36.20;;;18.50;;
173;SDS011;75;48.784;9.364;2022-12-05T02:57:15;38.80;;;19.27;;
173;SDS011;75;48.784;9.364;2022-12-05T02:59:43;38.53;;;18.97;;
173;SDS011;75;48.784;9.364;2022-12-05T03:02:30;37.00;;;18.40;;
173;SDS011;75;48.784;9.364;2022-12-05T03:05:07;37.00;;;18.50;;
173;SDS011;75;48.784;9.364;2022-12-05T03:07:35;41.37;;;18.80;;
173;SDS011;75;48.784;9.364;2022-12-05T03:10:04;35.90;;;18.00;;
173;SDS011;75;48.784;9.364;2022-12-05T03:12:35;35.47;;;18.47;;
173;SDS011;75;48.784;9.364;2022-12-05T03:18:23;34.90;;;17.50;;
173;SDS011;75;48.784;9.364;2022-12-05T03:20:53;36.80;;;18.30;;
173;SDS011;75;48.784;9.364;2022-12-05T03:23:23;37.00;;;18.13;;
173;SDS011;75;48.784;9.364;2022-12-05T03:31:20;36.30;;;18.53;;
173;SDS011;75;48.784;9.364;2022-12-05T03:33:50;39.00;;;18.80;;
173;SDS011;75;48.784;9.364;2022-12-05T03:36:22;39.23;;;19.20;;
173;SDS011;75;48.784;9.364;2022-12-05T03:38:57;38.30;;;19.60;;
173;SDS011;75;48.784;9.364;2022-12-05T03:41:40;42.07;;;21.10;;
173;SDS011;75;48.784;9.364;2022-12-05T03:44:13;42.90;;;19.60;;
173;SDS011;75;48.784;9.364;2022-12-05T03:46:54;38.57;;;18.40;;
173;SDS011;75;48.784;9.364;2022-12-05T03:49:27;36.20;;;19.10;;
173;SDS011;75;48.784;9.364;2022-12-05T03:52:39;37.63;;;19.40;;
173;SDS011;75;48.784;9.364;2022-12-05T03:54:48;37.73;;;19.37;;
173;SDS011;75;48.784;9.364;2022-12-05T03:57:19;36.40;;;18.00;;
173;SDS011;75;48.784;9.364;2022-12-05T04:02:17;35.00;;;17.80;;
173;SDS011;75;48.784;9.364;2022-12-05T04:04:48;33.90;;;17.07;;
173;SDS011;75;48.784;9.364;2022-12-05T04:07:18;35.53;;;17.50;;
173;SDS011;75;48.784;9.364;2022-12-05T04:09:48;32.60;;;16.70;;
173;SDS011;75;48.784;9.364;2022-12-05T04:12:19;31.97;;;17.50;;
173;SDS011;75;48.784;9.364;2022-12-05T04:14:49;36.03;;;17.23;;
173;SDS011;75;48.784;9.364;2022-12-05T04:17:33;33.50;;;17.70;;
173;SDS011;75;48.784;9.364;2022-12-05T04:20:03;33.57;;;17.43;;
173;SDS011;75;48.784;9.364;2022-12-05T04:22:51;35.97;;;17.60;;
173;SDS011;75;48.784;9.364;2022-12-05T04:25:19;33.30;;;16.63;;
173;SDS011;75;48.784;9.364;2022-12-05T04:30:31;28.33;;;15.57;;
173;SDS011;75;48.784;9.364;2022-12-05T04:35:44;32.10;;;17.53;;
173;SDS011;75;48.784;9.364;2022-12-05T04:38:14;32.50;;;16.93;;
173;SDS011;75;48.784;9.364;2022-12-05T04:40:45;31.47;;;16.43;;
173;SDS011;75;48.784;9.364;2022-12-05T04:43:15;32.47;;;16.37;;
173;SDS011;75;48.784;9.364;2022-12-05T04:45:44;32.73;;;16.40;;
173;SDS011;75;48.784;9.364;2022-12-05T04:48:13;32.90;;;16.57;;
173;SDS011;75;48.784;9.364;2022-12-05T04:50:40;29.90;;;16.10;;
173;SDS011;75;48.784;9.364;2022-12-05T04:53:08;34.90;;;17.53;;
173;SDS011;75;48.784;9.364;2022-12-05T04:55:38;30.30;;;16.13;;
173;SDS011;75;48.784;9.364;2022-12-05T04:58:10;32.17;;;16.53;;
173;SDS011;75;48.784;9.364;2022-12-05T05:00:46;33.53;;;16.93;;
173;SDS011;75;48.784;9.364;2022-12-05T05:03:18;30.37;;;16.27;;
173;SDS011;75;48.784;9.364;2022-12-05T05:05:47;32.40;;;17.23;;
173;SDS011;75;48.784;9.364;2022-12-05T05:08:19;35.33;;;20.00;;
173;SDS011;75;48.784;9.364;2022-12-05T05:13:32;42.27;;;23.23;;
173;SDS011;75;48.784;9.364;2022-12-05T05:16:00;36.03;;;20.00;;
173;SDS011;75;48.784;9.364;2022-12-05T05:18:27;32.30;;;18.20;;
173;SDS011;75;48.784;9.364;2022-12-05T05:20:55;33.53;;;18.27;;
173;SDS011;75;48.784;9.364;2022-12-05T05:23:22;33.00;;;16.80;;
173;SDS011;75;48.784;9.364;2022-12-05T05:25:53;37.20;;;20.50;;
173;SDS011;75;48.784;9.364;2022-12-05T05:28:21;33.10;;;17.30;;
173;SDS011;75;48.784;9.364;2022-12-05T05:30:48;34.87;;;18.00;;
173;SDS011;75;48.784;9.364;2022-12-05T05:33:15;36.67;;;20.07;;
173;SDS011;75;48.784;9.364;2022-12-05T05:35:43;48.50;;;34.97;;
173;SDS011;75;48.784;9.364;2022-12-05T05:38:10;39.70;;;24.07;;
173;SDS011;75;48.784;9.364;2022-12-05T05:40:37;38.70;;;21.30;;
173;SDS011;75;48.784;9.364;2022-12-05T05:43:05;33.07;;;19.70;;
173;SDS011;75;48.784;9.364;2022-12-05T05:45:32;35.43;;;19.20;;
173;SDS011;75;48.784;9.364;2022-12-05T05:47:59;31.93;;;17.70;;
173;SDS011;75;48.784;9.364;2022-12-05T05:50:27;30.60;;;17.43;;
173;SDS011;75;48.784;9.364;2022-12-05T05:52:54;35.40;;;16.93;;
173;SDS011;75;48.784;9.364;2022-12-05T05:55:22;33.23;;;17.50;;
173;SDS011;75;48.784;9.364;2022-12-05T05:57:49;36.73;;;18.20;;
173;SDS011;75;48.784;9.364;2022-12-05T06:00:16;30.00;;;16.70;;
173;SDS011;75;48.784;9.364;2022-12-05T06:02:44;31.10;;;16.60;;
173;SDS011;75;48.784;9.364;2022-12-05T06:05:11;30.77;;;16.57;;
173;SDS011;75;48.784;9.364;2022-12-05T06:07:39;29.00;;;16.60;;
173;SDS011;75;48.784;9.364;2022-12-05T06:10:06;31.87;;;16.80;;
173;SDS011;75;48.784;9.364;2022-12-05T06:12:34;27.57;;;16.03;;
173;SDS011;75;48.784;9.364;2022-12-05T06:15:01;32.20;;;15.80;;
173;SDS011;75;48.784;9.364;2022-12-05T06:17:29;31.87;;;16.40;;
173;SDS011;75;48.784;9.364;2022-12-05T06:19:56;30.00;;;16.23;;
173;SDS011;75;48.784;9.364;2022-12-05T06:22:23;33.30;;;16.80;;
173;SDS011;75;48.784;9.364;2022-12-05T06:24:51;32.43;;;17.57;;
173;SDS011;75;48.784;9.364;2022-12-05T06:27:18;32.07;;;16.60;;
173;SDS011;75;48.784;9.364;2022-12-05T06:29:45;30.67;;;16.10;;
173;SDS011;75;48.784;9.364;2022-12-05T06:32:13;30.70;;;16.83;;
173;SDS011;75;48.784;9.364;2022-12-05T06:34:40;31.80;;;17.07;;
173;SDS011;75;48.784;9.364;2022-12-05T06:37:07;33.70;;;17.53;;
173;SDS011;75;48.784;9.364;2022-12-05T06:39:35;31.97;;;16.50;;
173;SDS011;75;48.784;9.364;2022-12-05T06:42:03;29.50;;;16.60;;
173;SDS011;75;48.784;9.364;2022-12-05T06:44:31;32.00;;;16.87;;
173;SDS011;75;48.784;9.364;2022-12-05T06:46:58;34.60;;;17.83;;
173;SDS011;75;48.784;9.364;2022-12-05T06:49:25;29.80;;;17.00;;
173;SDS011;75;48.784;9.364;2022-12-05T06:51:58;30.33;;;15.60;;
173;SDS011;75;48.784;9.364;2022-12-05T06:54:25;32.67;;;16.63;;
173;SDS011;75;48.784;9.364;2022-12-05T06:56:52;30.87;;;16.80;;
173;SDS011;75;48.784;9.364;2022-12-05T06:59:20;35.07;;;17.17;;
173;SDS011;75;48.784;9.364;2022-12-05T07:01:47;32.77;;;17.40;;
173;SDS011;75;48.784;9.364;2022-12-05T07:04:16;33.77;;;17.60;;
173;SDS011;75;48.784;9.364;2022-12-05T07:06:46;30.07;;;17.93;;
173;SDS011;75;48.784;9.364;2022-12-05T07:09:20;31.10;;;17.80;;
173;SDS011;75;48.784;9.364;2022-12-05T07:11:49;33.10;;;18.27;;
173;SDS011;75;48.784;9.364;2022-12-05T07:14:16;34.27;;;18.40;;
173;SDS011;75;48.784;9.364;2022-12-05T07:16:44;34.50;;;19.20;;
173;SDS011;75;48.784;9.364;2022-12-05T07:19:11;30.77;;;17.90;;
173;SDS011;75;48.784;9.364;2022-12-05T07:21:38;33.20;;;20.63;;
173;SDS011;75;48.784;9.364;2022-12-05T07:24:06;28.23;;;16.43;;
173;SDS011;75;48.784;9.364;2022-12-05T07:26:33;29.37;;;16.30;;
173;SDS011;75;48.784;9.364;2022-12-05T07:29:01;28.30;;;16.80;;
173;SDS011;75;48.784;9.364;2022-12-05T07:31:28;26.20;;;15.30;;
173;SDS011;75;48.784;9.364;2022-12-05T07:33:55;30.80;;;17.07;;
173;SDS011;75;48.784;9.364;2022-12-05T07:36:23;27.20;;;16.07;;
173;SDS011;75;48.784;9.364;2022-12-05T07:38:54;29.00;;;16.10;;
173;SDS011;75;48.784;9.364;2022-12-05T07:41:24;27.40;;;16.17;;
173;SDS011;75;48.784;9.364;2022-12-05T07:43:52;26.13;;;15.27;;
173;SDS011;75;48.784;9.364;2022-12-05T07:46:19;23.23;;;13.63;;
173;SDS011;75;48.784;9.364;2022-12-05T07:48:47;26.13;;;14.10;;
173;SDS011;75;48.784;9.364;2022-12-05T07:51:14;26.27;;;14.53;;
173;SDS011;75;48.784;9.364;2022-12-05T07:53:42;26.70;;;14.80;;
173;SDS011;75;48.784;9.364;2022-12-05T07:56:10;27.70;;;14.90;;
173;SDS011;75;48.784;9.364;2022-12-05T07:58:39;24.90;;;14.30;;
173;SDS011;75;48.784;9.364;2022-12-05T08:01:08;24.57;;;13.60;;
173;SDS011;75;48.784;9.364;2022-12-05T08:03:35;28.73;;;15.47;;
173;SDS011;75;48.784;9.364;2022-12-05T08:06:03;29.00;;;14.90;;
173;SDS011;75;48.784;9.364;2022-12-05T08:08:30;30.53;;;16.03;;
173;SDS011;75;48.784;9.364;2022-12-05T08:11:04;33.53;;;18.80;;
173;SDS011;75;48.784;9.364;2022-12-05T08:13:32;28.77;;;16.93;;
173;SDS011;75;48.784;9.364;2022-12-05T08:16:03;27.87;;;16.27;;
173;SDS011;75;48.784;9.364;2022-12-05T08:18:31;26.40;;;15.20;;
173;SDS011;75;48.784;9.364;2022-12-05T08:21:02;27.37;;;14.53;;
173;SDS011;75;48.784;9.364;2022-12-05T08:23:30;28.37;;;16.23;;
173;SDS011;75;48.784;9.364;2022-12-05T08:26:16;25.57;;;15.50;;
173;SDS011;75;48.784;9.364;2022-12-05T08:28:46;24.20;;;14.17;;
173;SDS011;75;48.784;9.364;2022-12-05T08:31:17;28.90;;;17.10;;
173;SDS011;75;48.784;9.364;2022-12-05T08:33:45;24.40;;;14.17;;
173;SDS011;75;48.784;9.364;2022-12-05T08:36:13;24.63;;;13.70;;
173;SDS011;75;48.784;9.364;2022-12-05T08:38:41;23.33;;;13.87;;
173;SDS011;75;48.784;9.364;2022-12-05T08:41:10;26.57;;;16.47;;
173;SDS011;75;48.784;9.364;2022-12-05T08:43:37;20.33;;;12.83;;
173;SDS011;75;48.784;9.364;2022-12-05T08:46:05;17.67;;;9.97;;
173;SDS011;75;48.784;9.364;2022-12-05T08:48:33;16.20;;;10.10;;
173;SDS011;75;48.784;9.364;2022-12-05T08:51:07;19.90;;;10.40;;
173;SDS011;75;48.784;9.364;2022-12-05T08:53:35;16.20;;;10.63;;
173;SDS011;75;48.784;9.364;2022-12-05T08:56:03;16.87;;;11.03;;
173;SDS011;75;48.784;9.364;2022-12-05T08:58:31;15.90;;;10.57;;
173;SDS011;75;48.784;9.364;2022-12-05T09:01:07;18.67;;;10.73;;
173;SDS011;75;48.784;9.364;2022-12-05T09:03:34;18.30;;;11.40;;
173;SDS011;75;48.784;9.364;2022-12-05T09:08:32;16.70;;;10.70;;
173;SDS011;75;48.784;9.364;2022-12-05T09:11:03;15.73;;;10.20;;
173;SDS011;75;48.784;9.364;2022-12-05T09:13:30;16.30;;;10.70;;
173;SDS011;75;48.784;9.364;2022-12-05T09:15:58;16.17;;;10.13;;
173;SDS011;75;48.784;9.364;2022-12-05T09:18:25;19.00;;;12.10;;
173;SDS011;75;48.784;9.364;2022-12-05T09:20:52;17.40;;;10.70;;
173;SDS011;75;48.784;9.364;2022-12-05T09:23:20;17.90;;;10.23;;
173;SDS011;75;48.784;9.364;2022-12-05T09:25:53;15.00;;;9.57;;
173;SDS011;75;48.784;9.364;2022-12-05T09:28:23;16.40;;;11.10;;
173;SDS011;75;48.784;9.364;2022-12-05T09:31:00;17.07;;;10.60;;
173;SDS011;75;48.784;9.364;2022-12-05T09:33:28;15.33;;;10.40;;
173;SDS011;75;48.784;9.364;2022-12-05T09:35:56;15.30;;;10.47;;
173;SDS011;75;48.784;9.364;2022-12-05T09:38:23;15.57;;;10.60;;
173;SDS011;75;48.784;9.364;2022-12-05T09:40:59;14.30;;;9.60;;
173;SDS011;75;48.784;9.364;2022-12-05T09:43:34;16.70;;;11.30;;
173;SDS011;75;48.784;9.364;2022-12-05T09:46:08;13.90;;;9.60;;
173;SDS011;75;48.784;9.364;2022-12-05T09:48:41;16.60;;;11.00;;
173;SDS011;75;48.784;9.364;2022-12-05T09:51:10;17.20;;;11.77;;
173;SDS011;75;48.784;9.364;2022-12-05T09:53:39;15.30;;;10.40;;
173;SDS011;75;48.784;9.364;2022-12-05T09:56:23;15.00;;;9.40;;
173;SDS011;75;48.784;9.364;2022-12-05T09:58:52;15.13;;;9.83;;
173;SDS011;75;48.784;9.364;2022-12-05T10:01:36;14.93;;;9.70;;
173;SDS011;75;48.784;9.364;2022-12-05T10:04:18;15.63;;;10.80;;
173;SDS011;75;48.784;9.364;2022-12-05T10:09:46;16.50;;;11.10;;
173;SDS011;75;48.784;9.364;2022-12-05T10:17:41;17.60;;;10.43;;
173;SDS011;75;48.784;9.364;2022-12-05T10:20:14;22.10;;;11.80;;
173;SDS011;75;48.784;9.364;2022-12-05T10:22:43;17.40;;;11.33;;
173;SDS011;75;48.784;9.364;2022-12-05T10:25:13;19.17;;;13.30;;
173;SDS011;75;48.784;9.364;2022-12-05T10:27:53;23.20;;;15.20;;
173;SDS011;75;48.784;9.364;2022-12-05T10:30:23;18.40;;;13.90;;
173;SDS011;75;48.784;9.364;2022-12-05T10:32:54;16.50;;;10.50;;
173;SDS011;75;48.784;9.364;2022-12-05T10:35:26;16.30;;;10.70;;
173;SDS011;75;48.784;9.364;2022-12-05T10:37:58;19.80;;;12.67;;
173;SDS011;75;48.784;9.364;2022-12-05T10:40:29;17.10;;;10.57;;
173;SDS011;75;48.784;9.364;2022-12-05T10:42:59;18.30;;;9.87;;
173;SDS011;75;48.784;9.364;2022-12-05T10:45:26;15.77;;;9.63;;
173;SDS011;75;48.784;9.364;2022-12-05T10:47:54;13.70;;;9.43;;
173;SDS011;75;48.784;9.364;2022-12-05T10:50:29;17.77;;;10.50;;
173;SDS011;75;48.784;9.364;2022-12-05T10:52:58;14.40;;;9.77;;
173;SDS011;75;48.784;9.364;2022-12-05T10:55:29;13.57;;;9.70;;
173;SDS011;75;48.784;9.364;2022-12-05T10:58:09;13.70;;;9.13;;
173;SDS011;75;48.784;9.364;2022-12-05T11:00:37;14.07;;;9.40;;
173;SDS011;75;48.784;9.364;2022-12-05T11:06:17;12.37;;;8.27;;
173;SDS011;75;48.784;9.364;2022-12-05T11:08:50;12.77;;;8.80;;
173;SDS011;75;48.784;9.364;2022-12-05T11:11:20;14.83;;;9.17;;
173;SDS011;75;48.784;9.364;2022-12-05T11:16:25;17.50;;;10.70;;
173;SDS011;75;48.784;9.364;2022-12-05T11:18:54;19.53;;;11.87;;
173;SDS011;75;48.784;9.364;2022-12-05T11:21:21;18.57;;;11.87;;
173;SDS011;75;48.784;9.364;2022-12-05T11:23:49;19.20;;;12.50;;
173;SDS011;75;48.784;9.364;2022-12-05T11:26:18;16.00;;;11.30;;
173;SDS011;75;48.784;9.364;2022-12-05T11:28:45;19.90;;;11.83;;
173;SDS011;75;48.784;9.364;2022-12-05T11:33:40;19.00;;;11.40;;
173;SDS011;75;48.784;9.364;2022-12-05T11:36:17;14.90;;;9.80;;
173;SDS011;75;48.784;9.364;2022-12-05T11:38:45;15.40;;;10.50;;
173;SDS011;75;48.784;9.364;2022-12-05T11:43:48;17.57;;;9.37;;
173;SDS011;75;48.784;9.364;2022-12-05T11:54:31;18.33;;;10.50;;
173;SDS011;75;48.784;9.364;2022-12-05T11:57:04;15.70;;;10.13;;
173;SDS011;75;48.784;9.364;2022-12-05T11:59:46;17.83;;;10.70;;
173;SDS011;75;48.784;9.364;2022-12-05T12:04:48;22.13;;;12.27;;
173;SDS011;75;48.784;9.364;2022-12-05T12:07:20;34.23;;;16.67;;
173;SDS011;75;48.784;9.364;2022-12-05T12:13:07;21.93;;;12.40;;
173;SDS011;75;48.784;9.364;2022-12-05T12:25:41;25.83;;;13.90;;
173;SDS011;75;48.784;9.364;2022-12-05T12:33:28;24.10;;;14.60;;
173;SDS011;75;48.784;9.364;2022-12-05T12:36:15;27.17;;;14.87;;
173;SDS011;75;48.784;9.364;2022-12-05T12:44:21;23.07;;;14.10;;
173;SDS011;75;48.784;9.364;2022-12-05T12:46:54;22.73;;;14.53;;
173;SDS011;75;48.784;9.364;2022-12-05T12:52:11;34.30;;;20.00;;
173;SDS011;75;48.784;9.364;2022-12-05T13:02:44;24.20;;;15.20;;
173;SDS011;75;48.784;9.364;2022-12-05T13:07:47;23.80;;;13.93;;
173;SDS011;75;48.784;9.364;2022-12-05T13:12:48;35.00;;;17.17;;
173;SDS011;75;48.784;9.364;2022-12-05T13:15:17;26.70;;;15.97;;
173;SDS011;75;48.784;9.364;2022-12-05T13:17:46;24.77;;;15.73;;
173;SDS011;75;48.784;9.364;2022-12-05T13:20:16;25.10;;;16.43;;
173;SDS011;75;48.784;9.364;2022-12-05T13:22:44;30.13;;;17.27;;
173;SDS011;75;48.784;9.364;2022-12-05T13:25:13;25.30;;;15.70;;
173;SDS011;75;48.784;9.364;2022-12-05T13:27:50;28.47;;;16.43;;
173;SDS011;75;48.784;9.364;2022-12-05T13:30:19;25.00;;;14.73;;
173;SDS011;75;48.784;9.364;2022-12-05T13:32:47;24.70;;;14.87;;
173;SDS011;75;48.784;9.364;2022-12-05T13:38:22;23.00;;;14.70;;
173;SDS011;75;48.784;9.364;2022-12-05T13:41:12;29.00;;;18.20;;
173;SDS011;75;48.784;9.364;2022-12-05T13:43:58;26.03;;;14.40;;
173;SDS011;75;48.784;9.364;2022-12-05T13:46:29;22.80;;;15.00;;
173;SDS011;75;48.784;9.364;2022-12-05T13:49:05;26.83;;;16.27;;
173;SDS011;75;48.784;9.364;2022-12-05T13:51:35;27.07;;;16.63;;
173;SDS011;75;48.784;9.364;2022-12-05T13:54:10;23.57;;;15.70;;
173;SDS011;75;48.784;9.364;2022-12-05T13:56:55;25.93;;;15.77;;
173;SDS011;75;48.784;9.364;2022-12-05T14:04:59;25.50;;;15.47;;
173;SDS011;75;48.784;9.364;2022-12-05T14:07:38;25.47;;;15.90;;
173;SDS011;75;48.784;9.364;2022-12-05T14:10:06;24.97;;;16.17;;
173;SDS011;75;48.784;9.364;2022-12-05T14:15:26;26.50;;;15.63;;
173;SDS011;75;48.784;9.364;2022-12-05T14:17:55;25.50;;;16.10;;
173;SDS011;75;48.784;9.364;2022-12-05T14:20:31;26.87;;;15.60;;
173;SDS011;75;48.784;9.364;2022-12-05T14:23:10;25.27;;;16.07;;
173;SDS011;75;48.784;9.364;2022-12-05T14:25:43;26.33;;;15.87;;
173;SDS011;75;48.784;9.364;2022-12-05T14:28:28;24.00;;;15.90;;
173;SDS011;75;48.784;9.364;2022-12-05T14:34:02;24.37;;;15.10;;
173;SDS011;75;48.784;9.364;2022-12-05T14:36:29;27.80;;;15.87;;
173;SDS011;75;48.784;9.364;2022-12-05T14:38:59;25.40;;;15.10;;
173;SDS011;75;48.784;9.364;2022-12-05T14:41:30;25.80;;;16.17;;
173;SDS011;75;48.784;9.364;2022-12-05T14:43:59;30.10;;;14.70;;
173;SDS011;75;48.784;9.364;2022-12-05T14:46:30;25.97;;;16.33;;
173;SDS011;75;48.784;9.364;2022-12-05T14:49:26;23.40;;;15.30;;
173;SDS011;75;48.784;9.364;2022-12-05T14:51:54;26.60;;;16.50;;
173;SDS011;75;48.784;9.364;2022-12-05T14:54:22;22.37;;;14.50;;
173;SDS011;75;48.784;9.364;2022-12-05T14:56:51;24.27;;;15.20;;
173;SDS011;75;48.784;9.364;2022-12-05T14:59:24;24.73;;;13.83;;
173;SDS011;75;48.784;9.364;2022-12-05T15:01:54;23.33;;;14.00;;
173;SDS011;75;48.784;9.364;2022-12-05T15:06:53;21.70;;;14.60;;
173;SDS011;75;48.784;9.364;2022-12-05T15:09:34;24.20;;;15.10;;
173;SDS011;75;48.784;9.364;2022-12-05T15:12:03;22.73;;;15.40;;
173;SDS011;75;48.784;9.364;2022-12-05T15:14:33;25.63;;;16.50;;
173;SDS011;75;48.784;9.364;2022-12-05T15:17:03;27.10;;;16.97;;
173;SDS011;75;48.784;9.364;2022-12-05T15:19:36;25.97;;;16.53;;
173;SDS011;75;48.784;9.364;2022-12-05T15:22:08;28.20;;;16.73;;
173;SDS011;75;48.784;9.364;2022-12-05T15:24:39;25.43;;;17.30;;
173;SDS011;75;48.784;9.364;2022-12-05T15:27:08;27.53;;;17.30;;
173;SDS011;75;48.784;9.364;2022-12-05T15:29:39;32.70;;;18.40;;
173;SDS011;75;48.784;9.364;2022-12-05T15:37:11;30.60;;;19.50;;
173;SDS011;75;48.784;9.364;2022-12-05T15:42:16;41.53;;;24.60;;
173;SDS011;75;48.784;9.364;2022-12-05T15:44:43;36.83;;;22.17;;
173;SDS011;75;48.784;9.364;2022-12-05T15:47:18;37.37;;;23.23;;
173;SDS011;75;48.784;9.364;2022-12-05T15:49:46;33.63;;;22.03;;
173;SDS011;75;48.784;9.364;2022-12-05T15:52:24;34.50;;;23.23;;
173;SDS011;75;48.784;9.364;2022-12-05T15:54:52;34.37;;;23.20;;
173;SDS011;75;48.784;9.364;2022-12-05T15:57:33;33.60;;;21.80;;
173;SDS011;75;48.784;9.364;2022-12-05T16:00:04;33.20;;;19.77;;
173;SDS011;75;48.784;9.364;2022-12-05T16:06:11;29.00;;;18.60;;
173;SDS011;75;48.784;9.364;2022-12-05T16:08:05;30.10;;;18.50;;
173;SDS011;75;48.784;9.364;2022-12-05T16:10:33;35.00;;;19.77;;
173;SDS011;75;48.784;9.364;2022-12-05T16:13:02;30.73;;;18.10;;
173;SDS011;75;48.784;9.364;2022-12-05T16:15:30;37.57;;;19.67;;
173;SDS011;75;48.784;9.364;2022-12-05T16:17:59;33.87;;;22.07;;
173;SDS011;75;48.784;9.364;2022-12-05T16:20:32;37.87;;;24.07;;
173;SDS011;75;48.784;9.364;2022-12-05T16:23:04;40.90;;;24.00;;
173;SDS011;75;48.784;9.364;2022-12-05T16:25:32;38.33;;;24.40;;
173;SDS011;75;48.784;9.364;2022-12-05T16:30:34;37.67;;;23.17;;
173;SDS011;75;48.784;9.364;2022-12-05T16:33:03;47.47;;;30.17;;
173;SDS011;75;48.784;9.364;2022-12-05T16:35:35;46.83;;;29.80;;
173;SDS011;75;48.784;9.364;2022-12-05T16:38:11;42.00;;;28.33;;
173;SDS011;75;48.784;9.364;2022-12-05T16:40:40;42.40;;;26.30;;
173;SDS011;75;48.784;9.364;2022-12-05T16:43:24;42.27;;;27.07;;
173;SDS011;75;48.784;9.364;2022-12-05T16:45:53;44.53;;;25.63;;
173;SDS011;75;48.784;9.364;2022-12-05T16:48:22;40.37;;;25.70;;
173;SDS011;75;48.784;9.364;2022-12-05T16:50:51;47.13;;;29.30;;
173;SDS011;75;48.784;9.364;2022-12-05T16:53:26;46.10;;;29.73;;
173;SDS011;75;48.784;9.364;2022-12-05T16:55:54;47.97;;;29.40;;
173;SDS011;75;48.784;9.364;2022-12-05T16:58:24;49.67;;;31.30;;
173;SDS011;75;48.784;9.364;2022-12-05T17:00:55;58.80;;;34.23;;
173;SDS011;75;48.784;9.364;2022-12-05T17:03:24;56.73;;;35.23;;
173;SDS011;75;48.784;9.364;2022-12-05T17:05:53;56.90;;;34.90;;
173;SDS011;75;48.784;9.364;2022-12-05T17:08:21;66.17;;;42.23;;
173;SDS011;75;48.784;9.364;2022-12-05T17:10:49;65.33;;;43.33;;
173;SDS011;75;48.784;9.364;2022-12-05T17:13:17;57.90;;;38.93;;
173;SDS011;75;48.784;9.364;2022-12-05T17:15:44;59.60;;;38.20;;
173;SDS011;75;48.784;9.364;2022-12-05T17:18:12;50.57;;;32.20;;
173;SDS011;75;48.784;9.364;2022-12-05T17:20:42;44.43;;;29.20;;
173;SDS011;75;48.784;9.364;2022-12-05T17:23:11;41.60;;;26.50;;
173;SDS011;75;48.784;9.364;2022-12-05T17:25:41;40.90;;;25.60;;
173;SDS011;75;48.784;9.364;2022-12-05T17:28:09;47.50;;;27.00;;
173;SDS011;75;48.784;9.364;2022-12-05T17:30:36;42.03;;;25.47;;
173;SDS011;75;48.784;9.364;2022-12-05T17:33:05;41.00;;;25.57;;
173;SDS011;75;48.784;9.364;2022-12-05T17:35:33;47.40;;;29.40;;
173;SDS011;75;48.784;9.364;2022-12-05T17:38:02;60.17;;;33.77;;
173;SDS011;75;48.784;9.364;2022-12-05T17:40:30;54.63;;;35.70;;
173;SDS011;75;48.784;9.364;2022-12-05T17:42:57;58.37;;;36.90;;
173;SDS011;75;48.784;9.364;2022-12-05T17:45:25;55.57;;;34.17;;
173;SDS011;75;48.784;9.364;2022-12-05T17:47:52;50.50;;;32.60;;
173;SDS011;75;48.784;9.364;2022-12-05T17:50:20;55.27;;;34.23;;
173;SDS011;75;48.784;9.364;2022-12-05T17:52:48;54.67;;;32.80;;
173;SDS011;75;48.784;9.364;2022-12-05T17:55:25;42.33;;;27.63;;
173;SDS011;75;48.784;9.364;2022-12-05T17:57:54;43.23;;;28.47;;
173;SDS011;75;48.784;9.364;2022-12-05T18:00:22;56.33;;;37.80;;
173;SDS011;75;48.784;9.364;2022-12-05T18:02:49;92.37;;;68.93;;
173;SDS011;75;48.784;9.364;2022-12-05T18:05:18;74.20;;;48.10;;
173;SDS011;75;48.784;9.364;2022-12-05T18:07:45;65.17;;;41.77;;
173;SDS011;75;48.784;9.364;2022-12-05T18:10:14;51.70;;;31.50;;
173;SDS011;75;48.784;9.364;2022-12-05T18:12:42;52.43;;;31.43;;